createdAt,value
2023-04-17T00:00:00.241Z,92240.81
2023-04-17T00:01:37.341Z,92235.13
2023-04-17T00:03:13.765Z,92235.25
2023-04-17T00:04:46.988Z,92231.78
2023-04-17T00:06:22.360Z,92235.25
2023-04-17T00:07:57.615Z,92227.66
2023-04-17T00:09:38.916Z,92232.56
2023-04-17T00:11:26.618Z,92239.06
2023-04-17T00:13:16.339Z,92236.38
2023-04-17T00:14:49.224Z,92231.00
2023-04-17T00:16:28.035Z,92235.59
2023-04-17T00:18:00.456Z,92231.00
2023-04-17T00:19:47.669Z,92229.41
2023-04-17T00:21:32.864Z,92232.44
2023-04-17T00:23:07.614Z,92231.63
2023-04-17T00:24:42.454Z,92231.63
2023-04-17T00:28:03.511Z,92233.84
2023-04-17T00:29:46.330Z,92229.75
2023-04-17T00:31:19.003Z,92227.84
2023-04-17T00:32:54.111Z,92237.81
2023-04-17T00:34:35.857Z,92235.44
2023-04-17T00:36:10.913Z,92232.44
2023-04-17T00:37:53.114Z,92237.81
2023-04-17T00:39:27.368Z,92235.44
2023-04-17T00:41:05.740Z,92228.94
2023-04-17T00:42:39.038Z,92227.72
2023-04-17T00:44:10.650Z,92225.22
2023-04-17T00:46:10.593Z,92224.59
2023-04-17T00:47:47.924Z,92226.06
2023-04-17T00:49:24.854Z,92227.94
2023-04-17T00:51:20.299Z,92224.16
2023-04-17T00:52:52.157Z,92233.97
2023-04-17T00:54:25.575Z,92229.88
2023-04-17T00:55:57.633Z,92239.69
2023-04-17T00:57:29.639Z,92234.63
2023-04-17T00:59:01.575Z,92237.94
2023-04-17T01:00:33.316Z,92237.16
2023-04-17T01:02:04.961Z,92234.47
2023-04-17T01:03:38.907Z,92240.97
2023-04-17T01:05:10.931Z,92237.81
2023-04-17T01:06:42.986Z,92240.84
2023-04-17T01:08:14.616Z,92241.16
2023-04-17T01:09:46.252Z,92241.47
2023-04-17T01:11:20.395Z,92253.19
2023-04-17T01:13:01.734Z,92245.91
2023-04-17T01:14:33.345Z,92244.00
2023-04-17T01:16:04.975Z,92243.56
2023-04-17T01:17:36.669Z,92249.41
2023-04-17T01:19:08.581Z,92240.56
2023-04-17T01:20:40.245Z,92242.94
2023-04-17T01:22:11.882Z,92236.78
2023-04-17T01:23:47.227Z,92243.56
2023-04-17T01:25:19.375Z,92241.56
2023-04-17T01:26:51.452Z,92240.88
2023-04-17T01:28:25.521Z,92238.53
2023-04-17T01:29:57.178Z,92230.94
2023-04-17T01:31:29.727Z,92228.25
2023-04-17T01:33:01.887Z,92235.38
2023-04-17T01:34:35.054Z,92227.34
2023-04-17T01:36:08.669Z,92231.59
2023-04-17T01:37:40.448Z,92234.59
2023-04-17T01:39:12.584Z,92232.03
2023-04-17T01:40:45.635Z,92223.19
2023-04-17T01:42:17.236Z,92217.81
2023-04-17T01:43:48.827Z,92222.41
2023-04-17T01:45:21.700Z,92225.56
2023-04-17T01:46:55.262Z,92215.59
2023-04-17T01:48:28.257Z,92214.03
2023-04-17T01:49:59.958Z,92219.06
2023-04-17T01:51:31.725Z,92209.75
2023-04-17T01:53:03.509Z,92202.38
2023-04-17T01:54:35.263Z,92204.56
2023-04-17T01:56:07.178Z,92203.00
2023-04-17T01:57:38.847Z,92200.31
2023-04-17T01:59:11.147Z,92203.00
2023-04-17T02:00:47.863Z,92199.69
2023-04-17T02:02:19.799Z,92201.84
2023-04-17T02:03:52.518Z,92201.34
2023-04-17T02:05:24.382Z,92196.44
2023-04-17T02:06:56.338Z,92199.25
2023-04-17T02:08:28.097Z,92196.41
2023-04-17T02:09:59.654Z,92201.13
2023-04-17T02:11:31.342Z,92195.75
2023-04-17T02:13:02.869Z,92187.34
2023-04-17T02:14:37.047Z,92193.66
2023-04-17T02:16:09.834Z,92196.47
2023-04-17T02:17:41.632Z,92193.78
2023-04-17T02:19:13.704Z,92200.13
2023-04-17T02:20:45.593Z,92197.44
2023-04-17T02:22:18.573Z,92199.84
2023-04-17T02:23:50.260Z,92198.91
2023-04-17T02:25:21.889Z,92201.44
2023-04-17T02:26:53.544Z,92203.47
2023-04-17T02:28:25.521Z,92198.25
2023-04-17T02:29:57.260Z,92200.94
2023-04-17T02:31:29.265Z,92192.56
2023-04-17T02:33:01.321Z,92197.63
2023-04-17T02:34:33.120Z,92190.66
2023-04-17T02:36:07.774Z,92186.88
2023-04-17T02:37:41.922Z,92194.75
2023-04-17T02:39:16.770Z,92194.44
2023-04-17T02:40:48.523Z,92193.31
2023-04-17T02:42:20.697Z,92191.09
2023-04-17T02:43:52.528Z,92190.94
2023-04-17T02:45:27.704Z,92185.56
2023-04-17T02:46:59.604Z,92189.53
2023-04-17T02:48:31.394Z,92196.00
2023-04-17T02:50:08.355Z,92194.09
2023-04-17T02:51:40.212Z,92193.31
2023-04-17T02:53:14.384Z,92180.19
2023-04-17T02:54:46.277Z,92196.66
2023-04-17T02:56:17.992Z,92199.84
2023-04-17T02:57:52.217Z,92193.97
2023-04-17T02:59:24.076Z,92189.25
2023-04-17T03:01:02.344Z,92201.78
2023-04-17T03:02:34.568Z,92202.91
2023-04-17T03:04:28.132Z,92198.06
2023-04-17T03:05:59.696Z,92204.06
2023-04-17T03:07:31.226Z,92199.00
2023-04-17T03:09:03.175Z,92198.22
2023-04-17T03:10:35.822Z,92197.09
2023-04-17T03:12:07.618Z,92194.09
2023-04-17T03:13:39.421Z,92194.25
2023-04-17T03:15:11.231Z,92200.22
2023-04-17T03:16:42.882Z,92195.97
2023-04-17T03:18:14.501Z,92200.56
2023-04-17T03:19:46.147Z,92199.44
2023-04-17T03:21:17.997Z,92196.09
2023-04-17T03:22:49.673Z,92193.09
2023-04-17T03:24:21.346Z,92196.91
2023-04-17T03:25:53.112Z,92202.28
2023-04-17T03:27:25.420Z,92200.84
2023-04-17T03:29:07.158Z,92194.34
2023-04-17T03:32:25.512Z,92207.78
2023-04-17T03:33:32.121Z,92199.00
2023-04-17T03:35:04.156Z,92189.34
2023-04-17T03:36:36.467Z,92194.41
2023-04-17T03:38:08.147Z,92198.53
2023-04-17T03:39:39.764Z,92195.19
2023-04-17T03:41:11.511Z,92198.78
2023-04-17T03:42:43.497Z,92195.97
2023-04-17T03:44:19.185Z,92193.94
2023-04-17T03:45:50.829Z,92195.38
2023-04-17T03:47:22.730Z,92198.06
2023-04-17T03:48:54.380Z,92196.16
2023-04-17T03:50:26.112Z,92200.41
2023-04-17T03:51:57.678Z,92203.44
2023-04-17T03:53:32.174Z,92200.13
2023-04-17T03:55:04.216Z,92196.19
2023-04-17T03:56:36.261Z,92200.78
2023-04-17T03:58:08.079Z,92203.16
2023-04-17T03:59:39.861Z,92197.25
2023-04-17T04:01:14.939Z,92202.47
2023-04-17T04:02:46.999Z,92200.06
2023-04-17T04:04:19.047Z,92203.81
2023-04-17T04:05:50.970Z,92211.22
2023-04-17T04:07:22.510Z,92196.69
2023-04-17T04:08:54.113Z,92200.78
2023-04-17T04:10:26.017Z,92201.56
2023-04-17T04:11:58.091Z,92205.19
2023-04-17T04:13:29.641Z,92203.28
2023-04-17T04:15:01.201Z,92207.56
2023-04-17T04:16:33.295Z,92205.66
2023-04-17T04:18:05.219Z,92202.19
2023-04-17T04:19:37.129Z,92202.63
2023-04-17T04:21:08.807Z,92202.19
2023-04-17T04:22:41.874Z,92201.06
2023-04-17T04:24:14.727Z,92207.09
2023-04-17T04:25:49.176Z,92209.78
2023-04-17T04:27:24.346Z,92203.44
2023-04-17T04:28:56.919Z,92206.13
2023-04-17T04:30:30.808Z,92205.00
2023-04-17T04:32:02.898Z,92214.81
2023-04-17T04:33:36.616Z,92212.78
2023-04-17T04:35:10.290Z,92213.09
2023-04-17T04:36:50.055Z,92215.63
2023-04-17T04:38:22.095Z,92220.06
2023-04-17T04:39:54.281Z,92221.47
2023-04-17T04:41:27.079Z,92221.56
2023-04-17T04:42:59.997Z,92224.59
2023-04-17T04:44:32.145Z,92221.91
2023-04-17T04:46:04.041Z,92226.31
2023-04-17T04:47:36.545Z,92231.22
2023-04-17T04:49:08.289Z,92239.28
2023-04-17T04:50:39.971Z,92236.28
2023-04-17T04:52:12.618Z,92231.22
2023-04-17T04:53:44.432Z,92230.91
2023-04-17T04:55:16.155Z,92231.53
2023-04-17T04:56:47.851Z,92231.44
2023-04-17T04:58:19.854Z,92236.66
2023-04-17T04:59:52.312Z,92227.34
2023-04-17T05:01:24.631Z,92224.31
2023-04-17T05:02:59.180Z,92231.91
2023-04-17T05:04:31.337Z,92233.13
2023-04-17T05:06:05.492Z,92234.38
2023-04-17T05:07:37.335Z,92236.09
2023-04-17T05:09:09.185Z,92240.19
2023-04-17T05:10:41.714Z,92239.31
2023-04-17T05:12:13.801Z,92234.41
2023-04-17T05:13:47.770Z,92244.84
2023-04-17T05:15:20.101Z,92240.41
2023-04-17T05:16:53.787Z,92237.19
2023-04-17T05:18:25.838Z,92240.34
2023-04-17T05:19:59.589Z,92239.47
2023-04-17T05:21:33.179Z,92237.88
2023-04-17T05:23:04.948Z,92238.13
2023-04-17T05:24:37.072Z,92241.28
2023-04-17T05:26:09.803Z,92239.47
2023-04-17T05:27:41.737Z,92236.16
2023-04-17T05:29:13.599Z,92236.41
2023-04-17T05:30:45.513Z,92243.34
2023-04-17T05:32:19.515Z,92238.09
2023-04-17T05:33:53.926Z,92238.72
2023-04-17T05:35:25.665Z,92235.47
2023-04-17T05:36:57.670Z,92235.72
2023-04-17T05:38:37.881Z,92242.03
2023-04-17T05:40:10.346Z,92242.34
2023-04-17T05:41:47.265Z,92232.44
2023-04-17T05:43:21.773Z,92239.41
2023-04-17T05:44:54.067Z,92232.59
2023-04-17T05:46:25.871Z,92231.38
2023-04-17T05:48:01.154Z,92232.75
2023-04-17T05:49:33.035Z,92232.09
2023-04-17T05:51:07.577Z,92224.56
2023-04-17T05:52:39.723Z,92231.38
2023-04-17T05:54:11.795Z,92234.75
2023-04-17T05:55:43.733Z,92227.00
2023-04-17T05:57:15.514Z,92231.13
2023-04-17T05:58:48.095Z,92237.69
2023-04-17T06:00:22.955Z,92239.69
2023-04-17T06:01:54.851Z,92232.50
2023-04-17T06:03:27.501Z,92235.09
2023-04-17T06:04:59.679Z,92237.59
2023-04-17T06:06:32.710Z,92238.16
2023-04-17T06:08:04.387Z,92246.94
2023-04-17T06:09:37.099Z,92239.75
2023-04-17T06:11:15.934Z,92256.94
2023-04-17T06:12:49.563Z,92258.44
2023-04-17T06:14:21.430Z,92254.59
2023-04-17T06:15:53.641Z,92256.72
2023-04-17T06:17:26.952Z,92256.59
2023-04-17T06:18:58.732Z,92261.53
2023-04-17T06:20:30.423Z,92258.16
2023-04-17T06:22:04.766Z,92256.53
2023-04-17T06:23:36.470Z,92260.00
2023-04-17T06:25:08.440Z,92254.72
2023-04-17T06:26:40.590Z,92260.69
2023-04-17T06:28:13.536Z,92259.09
2023-04-17T06:29:45.368Z,92268.31
2023-04-17T06:31:17.233Z,92262.13
2023-04-17T06:32:48.943Z,92265.16
2023-04-17T06:34:21.101Z,92268.09
2023-04-17T06:35:52.924Z,92262.34
2023-04-17T06:37:24.745Z,92265.50
2023-04-17T06:38:56.455Z,92261.53
2023-04-17T06:40:30.194Z,92262.16
2023-04-17T06:42:02.617Z,92268.38
2023-04-17T06:43:34.541Z,92269.22
2023-04-17T06:45:07.161Z,92267.28
2023-04-17T06:46:38.985Z,92271.22
2023-04-17T06:48:14.007Z,92271.91
2023-04-17T06:49:48.573Z,92271.38
2023-04-17T06:51:21.364Z,92268.47
2023-04-17T06:52:59.521Z,92266.53
2023-04-17T06:54:31.306Z,92275.22
2023-04-17T06:56:03.027Z,92273.34
2023-04-17T06:57:37.338Z,92276.38
2023-04-17T06:59:12.055Z,92277.50
2023-04-17T07:00:44.237Z,92273.94
2023-04-17T07:02:23.524Z,92279.03
2023-04-17T07:03:55.662Z,92273.97
2023-04-17T07:05:27.930Z,92281.81
2023-04-17T07:06:59.661Z,92287.00
2023-04-17T07:08:31.771Z,92277.66
2023-04-17T07:10:04.001Z,92283.63
2023-04-17T07:11:41.531Z,92287.22
2023-04-17T07:13:17.707Z,92280.00
2023-04-17T07:14:52.337Z,92283.03
2023-04-17T07:16:34.203Z,92287.16
2023-04-17T07:18:08.697Z,92280.81
2023-04-17T07:19:42.037Z,92290.28
2023-04-17T07:21:14.017Z,92286.94
2023-04-17T07:22:47.384Z,92293.69
2023-04-17T07:24:19.747Z,92291.69
2023-04-17T07:25:55.931Z,92282.09
2023-04-17T07:27:27.627Z,92295.53
2023-04-17T07:29:02.770Z,92289.41
2023-04-17T07:30:34.719Z,92295.94
2023-04-17T07:32:09.045Z,92295.53
2023-04-17T07:33:43.705Z,92296.16
2023-04-17T07:35:19.665Z,92287.13
2023-04-17T07:36:56.409Z,92294.63
2023-04-17T07:38:30.737Z,92296.38
2023-04-17T07:40:07.485Z,92291.56
2023-04-17T07:41:46.750Z,92291.88
2023-04-17T07:43:18.604Z,92290.75
2023-04-17T07:44:50.418Z,92298.31
2023-04-17T07:46:28.010Z,92291.00
2023-04-17T07:48:00.276Z,92284.50
2023-04-17T07:49:34.434Z,92291.25
2023-04-17T07:51:08.810Z,92292.69
2023-04-17T07:52:40.760Z,92292.41
2023-04-17T07:54:12.940Z,92295.81
2023-04-17T07:55:47.775Z,92296.63
2023-04-17T07:57:19.533Z,92296.25
2023-04-17T07:58:52.890Z,92297.50
2023-04-17T08:00:25.070Z,92300.19
2023-04-17T08:01:57.784Z,92285.44
2023-04-17T08:03:31.958Z,92299.06
2023-04-17T08:05:07.180Z,92294.00
2023-04-17T08:06:46.872Z,92298.19
2023-04-17T08:08:20.585Z,92301.34
2023-04-17T08:09:56.171Z,92296.41
2023-04-17T08:11:28.189Z,92292.72
2023-04-17T08:13:00.636Z,92299.13
2023-04-17T08:14:35.605Z,92294.19
2023-04-17T08:16:07.672Z,92291.59
2023-04-17T08:17:42.178Z,92296.06
2023-04-17T08:19:14.203Z,92295.16
2023-04-17T08:20:51.954Z,92296.72
2023-04-17T08:22:31.353Z,92288.09
2023-04-17T08:24:05.839Z,92299.22
2023-04-17T08:25:41.066Z,92294.16
2023-04-17T08:27:15.426Z,92291.25
2023-04-17T08:28:47.358Z,92293.34
2023-04-17T08:30:20.657Z,92293.91
2023-04-17T08:32:06.806Z,92298.72
2023-04-17T08:33:45.575Z,92293.44
2023-04-17T08:35:19.710Z,92284.06
2023-04-17T08:36:51.570Z,92293.03
2023-04-17T08:38:31.585Z,92297.69
2023-04-17T08:40:18.835Z,92292.06
2023-04-17T08:42:00.539Z,92301.19
2023-04-17T08:43:38.968Z,92299.59
2023-04-17T08:45:18.576Z,92306.19
2023-04-17T08:46:53.069Z,92301.25
2023-04-17T08:48:47.342Z,92309.91
2023-04-17T08:50:19.684Z,92307.75
2023-04-17T08:51:58.947Z,92301.75
2023-04-17T08:53:31.103Z,92301.75
2023-04-17T08:55:06.376Z,92304.47
2023-04-17T08:56:58.296Z,92299.06
2023-04-17T08:58:41.589Z,92300.53
2023-04-17T09:00:20.649Z,92301.09
2023-04-17T09:02:10.435Z,92291.78
2023-04-17T09:03:45.365Z,92306.31
2023-04-17T09:05:21.403Z,92303.09
2023-04-17T09:06:54.725Z,92319.53
2023-04-17T09:08:29.422Z,92313.94
2023-04-17T09:10:14.406Z,92316.84
2023-04-17T09:11:48.868Z,92311.78
2023-04-17T09:13:28.624Z,92301.88
2023-04-17T09:15:00.470Z,92310.63
2023-04-17T09:16:32.777Z,92300.16
2023-04-17T09:18:07.321Z,92305.56
2023-04-17T09:19:41.750Z,92308.38
2023-04-17T09:21:16.792Z,92301.50
2023-04-17T09:22:48.678Z,92305.41
2023-04-17T09:24:34.832Z,92308.69
2023-04-17T09:26:15.893Z,92308.34
2023-04-17T09:27:47.813Z,92305.97
2023-04-17T09:29:19.533Z,92307.59
2023-04-17T09:30:51.646Z,92314.47
2023-04-17T09:32:28.674Z,92309.06
2023-04-17T09:34:03.267Z,92318.09
2023-04-17T09:35:39.245Z,92313.72
2023-04-17T09:37:11.486Z,92317.69
2023-04-17T09:38:46.373Z,92310.16
2023-04-17T09:40:23.656Z,92315.56
2023-04-17T09:42:06.820Z,92320.28
2023-04-17T09:43:43.499Z,92320.53
2023-04-17T09:45:25.420Z,92314.66
2023-04-17T09:46:57.286Z,92322.75
2023-04-17T09:48:29.168Z,92321.66
2023-04-17T09:50:01.048Z,92317.34
2023-04-17T09:51:36.615Z,92317.34
2023-04-17T09:53:08.952Z,92319.69
2023-04-17T09:54:41.035Z,92319.91
2023-04-17T09:56:13.868Z,92324.53
2023-04-17T09:57:45.559Z,92319.13
2023-04-17T09:59:17.558Z,92321.28
2023-04-17T10:00:50.854Z,92317.94
2023-04-17T10:02:23.072Z,92330.31
2023-04-17T10:03:57.980Z,92329.63
2023-04-17T10:05:32.541Z,92327.25
2023-04-17T10:07:04.763Z,92327.94
2023-04-17T10:08:38.841Z,92324.00
2023-04-17T10:10:11.459Z,92327.50
2023-04-17T10:11:44.001Z,92323.69
2023-04-17T10:13:15.957Z,92326.34
2023-04-17T10:14:49.037Z,92325.44
2023-04-17T10:16:21.783Z,92320.41
2023-04-17T10:17:58.956Z,92318.69
2023-04-17T10:19:39.579Z,92322.16
2023-04-17T10:21:22.302Z,92322.38
2023-04-17T10:22:54.814Z,92319.00
2023-04-17T10:24:27.178Z,92321.28
2023-04-17T10:26:18.127Z,92322.88
2023-04-17T10:27:50.885Z,92314.88
2023-04-17T10:29:42.576Z,92309.16
2023-04-17T10:31:14.309Z,92312.84
2023-04-17T10:32:46.418Z,92309.16
2023-04-17T10:34:36.428Z,92313.66
2023-04-17T10:36:08.164Z,92314.97
2023-04-17T10:37:48.850Z,92319.84
2023-04-17T10:39:20.508Z,92314.09
2023-04-17T10:40:52.156Z,92321.59
2023-04-17T10:42:24.294Z,92319.34
2023-04-17T10:43:56.529Z,92323.06
2023-04-17T10:45:48.458Z,92316.88
2023-04-17T10:47:20.782Z,92320.38
2023-04-17T10:49:43.941Z,92316.22
2023-04-17T10:51:21.386Z,92311.72
2023-04-17T10:52:59.414Z,92322.50
2023-04-17T10:54:43.219Z,92320.25
2023-04-17T10:56:18.624Z,92329.38
2023-04-17T10:57:55.849Z,92328.25
2023-04-17T10:59:30.712Z,92321.06
2023-04-17T11:01:03.206Z,92319.72
2023-04-17T11:03:14.077Z,92322.06
2023-04-17T11:12:29.415Z,92317.06
2023-04-17T11:14:02.949Z,92319.84
2023-04-17T11:15:35.257Z,92317.50
2023-04-17T11:17:07.573Z,92315.44
2023-04-17T11:18:39.419Z,92311.63
2023-04-17T11:20:22.010Z,92309.06
2023-04-17T11:25:15.394Z,92315.19
2023-04-17T11:26:47.886Z,92307.09
2023-04-17T11:28:19.660Z,92309.69
2023-04-17T11:29:56.222Z,92318.03
2023-04-17T11:31:29.171Z,92313.09
2023-04-17T11:33:18.419Z,92309.50
2023-04-17T11:34:50.836Z,92308.38
2023-04-17T11:36:58.530Z,92300.97
2023-04-17T11:38:31.254Z,92302.53
2023-04-17T11:42:14.373Z,92300.94
2023-04-17T11:45:41.726Z,92301.78
2023-04-17T11:47:16.237Z,92291.91
2023-04-17T11:48:59.160Z,92288.91
2023-04-17T11:50:42.972Z,92282.34
2023-04-17T11:52:18.233Z,92279.66
2023-04-17T11:53:52.717Z,92279.00
2023-04-17T11:55:35.941Z,92282.16
2023-04-17T11:57:16.003Z,92283.81
2023-04-17T11:58:55.802Z,92281.38
2023-04-17T12:00:33.798Z,92278.94
2023-04-17T12:02:07.599Z,92286.69
2023-04-17T12:04:22.887Z,92280.69
2023-04-17T12:06:36.170Z,92276.91
2023-04-17T12:13:23.033Z,92269.31
2023-04-17T12:14:54.911Z,92259.63
2023-04-17T12:16:35.420Z,92258.53
2023-04-17T12:18:10.452Z,92257.13
2023-04-17T12:22:05.707Z,92258.44
2023-04-17T12:24:36.290Z,92244.03
2023-04-17T12:27:57.895Z,92257.81
2023-04-17T12:29:43.920Z,92257.72
2023-04-17T12:31:18.995Z,92251.09
2023-04-17T12:33:16.020Z,92247.09
2023-04-17T12:35:03.308Z,92242.59
2023-04-17T12:37:08.784Z,92235.91
2023-04-17T12:38:55.083Z,92239.84
2023-04-17T12:45:19.486Z,92228.13
2023-04-17T12:46:58.100Z,92222.81
2023-04-17T12:49:01.629Z,92227.59
2023-04-17T12:52:09.840Z,92220.41
2023-04-17T12:54:00.779Z,92222.47
2023-04-17T12:55:44.913Z,92222.34
2023-04-17T12:59:30.627Z,92216.22
2023-04-17T13:01:42.844Z,92212.84
2023-04-17T13:03:37.140Z,92214.06
2023-04-17T13:05:10.171Z,92213.88
2023-04-17T13:07:14.784Z,92212.41
2023-04-17T13:13:13.911Z,92203.59
2023-04-17T13:13:37.523Z,92195.28
2023-04-17T13:15:22.811Z,92194.06
2023-04-17T13:19:50.427Z,92184.50
2023-04-17T13:28:07.194Z,92185.03
2023-04-17T13:34:58.142Z,92178.38
2023-04-17T13:39:35.724Z,92176.22
2023-04-17T14:32:04.484Z,92210.19
2023-04-17T14:33:53.922Z,92215.63
2023-04-17T14:48:01.326Z,92223.69
2023-04-17T14:50:13.733Z,92223.91
2023-04-17T14:57:34.433Z,92213.19
2023-04-17T14:59:26.426Z,92210.63
2023-04-17T15:01:11.343Z,92212.72
2023-04-17T15:02:57.525Z,92214.78
2023-04-17T15:04:54.118Z,92202.13
2023-04-17T15:06:30.268Z,92206.91
2023-04-17T15:08:04.511Z,92205.13
2023-04-17T15:09:59.689Z,92205.72
2023-04-17T15:11:59.049Z,92201.00
2023-04-17T15:13:51.877Z,92204.31
2023-04-17T15:15:32.829Z,92209.41
2023-04-17T15:17:07.307Z,92205.13
2023-04-17T15:19:27.613Z,92202.34
2023-04-17T15:20:42.417Z,92199.53
2023-04-17T15:22:17.471Z,92194.28
2023-04-17T15:23:58.201Z,92201.06
2023-04-17T15:25:39.314Z,92195.88
2023-04-17T15:27:28.147Z,92194.56
2023-04-17T15:29:08.548Z,92192.06
2023-04-17T15:30:46.175Z,92201.19
2023-04-17T15:32:32.730Z,92193.88
2023-04-17T15:36:08.987Z,92194.31
2023-04-17T15:37:49.956Z,92195.78
2023-04-17T15:39:34.389Z,92205.34
2023-04-17T15:41:27.289Z,92202.97
2023-04-17T15:43:13.142Z,92210.28
2023-04-17T15:45:01.194Z,92209.16
2023-04-17T15:46:40.733Z,92220.88
2023-04-17T15:48:13.650Z,92215.47
2023-04-17T15:49:54.208Z,92214.44
2023-04-17T15:51:28.778Z,92221.41
2023-04-17T15:54:53.161Z,92223.56
2023-04-17T15:56:25.133Z,92221.63
2023-04-17T15:57:56.961Z,92221.75
2023-04-17T15:59:35.166Z,92225.56
2023-04-17T16:01:15.499Z,92220.84
2023-04-17T16:02:48.525Z,92237.50
2023-04-17T16:04:21.618Z,92245.84
2023-04-17T16:05:55.033Z,92265.59
2023-04-17T16:07:27.182Z,92260.44
2023-04-17T16:09:19.139Z,92257.19
2023-04-17T16:10:51.232Z,92256.84
2023-04-17T16:12:24.074Z,92264.16
2023-04-17T16:13:56.745Z,92269.47
2023-04-17T16:15:29.824Z,92268.31
2023-04-17T16:17:01.537Z,92273.50
2023-04-17T16:18:33.441Z,92280.25
2023-04-17T16:20:06.165Z,92282.25
2023-04-17T16:21:38.493Z,92279.56
2023-04-17T16:23:12.510Z,92279.56
2023-04-17T16:24:45.992Z,92279.00
2023-04-17T16:26:18.771Z,92280.69
2023-04-17T16:27:50.511Z,92277.78
2023-04-17T16:29:22.515Z,92281.38
2023-04-17T16:30:54.317Z,92282.41
2023-04-17T16:32:29.084Z,92282.19
2023-04-17T16:34:03.158Z,92288.78
2023-04-17T16:35:37.114Z,92278.91
2023-04-17T16:37:09.546Z,92292.84
2023-04-17T16:38:41.440Z,92281.72
2023-04-17T16:40:13.365Z,92285.09
2023-04-17T16:41:45.413Z,92285.75
2023-04-17T16:43:19.738Z,92286.09
2023-04-17T16:44:53.991Z,92281.41
2023-04-17T16:46:35.567Z,92287.91
2023-04-17T16:48:27.485Z,92291.16
2023-04-17T16:49:59.854Z,92284.97
2023-04-17T16:51:36.697Z,92286.88
2023-04-17T16:53:15.458Z,92282.63
2023-04-17T16:54:48.223Z,92292.28
2023-04-17T16:56:22.574Z,92289.50
2023-04-17T16:58:07.360Z,92291.28
2023-04-17T16:59:39.158Z,92297.47
2023-04-17T17:01:14.505Z,92298.13
2023-04-17T17:02:47.541Z,92294.28
2023-04-17T17:04:19.478Z,92293.19
2023-04-17T17:05:54.667Z,92299.25
2023-04-17T17:07:26.530Z,92287.19
2023-04-17T17:09:02.375Z,92293.75
2023-04-17T17:10:34.236Z,92304.56
2023-04-17T17:12:06.656Z,92309.16
2023-04-17T17:13:43.705Z,92306.88
2023-04-17T17:15:15.917Z,92304.31
2023-04-17T17:16:47.836Z,92319.25
2023-04-17T17:18:29.428Z,92318.50
2023-04-17T17:20:03.456Z,92317.34
2023-04-17T17:21:39.510Z,92320.16
2023-04-17T17:23:12.903Z,92327.38
2023-04-17T17:24:46.979Z,92327.00
2023-04-17T17:26:18.744Z,92331.28
2023-04-17T17:27:50.705Z,92337.78
2023-04-17T17:29:22.429Z,92338.16
2023-04-17T17:31:01.725Z,92345.66
2023-04-17T17:32:33.592Z,92349.47
2023-04-17T17:34:22.517Z,92347.22
2023-04-17T17:36:00.829Z,92352.66
2023-04-17T17:37:41.766Z,92349.59
2023-04-17T17:39:14.342Z,92352.03
2023-04-17T17:40:50.781Z,92353.56
2023-04-17T17:42:22.643Z,92352.34
2023-04-17T17:43:56.925Z,92355.03
2023-04-17T17:45:28.696Z,92357.84
2023-04-17T17:47:03.448Z,92355.41
2023-04-17T17:48:40.555Z,92354.88
2023-04-17T17:50:12.642Z,92354.06
2023-04-17T17:51:52.153Z,92357.97
2023-04-17T17:53:27.335Z,92362.00
2023-04-17T17:55:01.561Z,92358.72
2023-04-17T17:56:52.799Z,92367.78
2023-04-17T17:58:28.887Z,92366.22
2023-04-17T18:00:02.912Z,92368.34
2023-04-17T18:01:34.813Z,92373.47
2023-04-17T18:03:08.023Z,92377.16
2023-04-17T18:04:40.025Z,92370.66
2023-04-17T18:06:15.081Z,92375.41
2023-04-17T18:08:04.187Z,92379.78
2023-04-17T18:09:35.951Z,92384.31
2023-04-17T18:11:07.875Z,92388.56
2023-04-17T18:12:39.983Z,92388.56
2023-04-17T18:14:12.028Z,92388.78
2023-04-17T18:15:48.301Z,92391.81
2023-04-17T18:17:20.191Z,92392.13
2023-04-17T18:18:52.051Z,92394.25
2023-04-17T18:20:26.890Z,92393.47
2023-04-17T18:22:02.252Z,92393.97
2023-04-17T18:23:36.304Z,92397.97
2023-04-17T18:25:13.776Z,92395.31
2023-04-17T18:26:45.779Z,92399.97
2023-04-17T18:28:24.813Z,92394.78
2023-04-17T18:29:56.736Z,92401.91
2023-04-17T18:31:28.996Z,92403.81
2023-04-17T18:33:06.593Z,92408.41
2023-04-17T18:34:38.892Z,92401.91
2023-04-17T18:36:29.001Z,92401.44
2023-04-17T18:38:01.085Z,92410.00
2023-04-17T18:39:38.684Z,92408.56
2023-04-17T18:41:10.735Z,92410.16
2023-04-17T18:42:48.159Z,92404.75
2023-04-17T18:44:20.382Z,92410.47
2023-04-17T18:45:58.394Z,92405.09
2023-04-17T18:47:30.499Z,92407.94
2023-04-17T18:49:15.298Z,92407.25
2023-04-17T18:50:49.533Z,92409.63
2023-04-17T18:52:21.387Z,92408.19
2023-04-17T18:53:53.412Z,92409.44
2023-04-17T18:55:37.640Z,92410.19
2023-04-17T18:57:09.567Z,92412.81
2023-04-17T18:58:42.420Z,92408.53
2023-04-17T19:00:24.546Z,92408.06
2023-04-17T19:01:59.242Z,92405.38
2023-04-17T19:03:31.271Z,92403.47
2023-04-17T19:05:04.878Z,92404.72
2023-04-17T19:06:42.176Z,92403.63
2023-04-17T19:08:15.381Z,92414.06
2023-04-17T19:09:51.930Z,92414.84
2023-04-17T19:11:33.411Z,92406.94
2023-04-17T19:13:10.005Z,92405.13
2023-04-17T19:14:46.243Z,92409.34
2023-04-17T19:16:22.291Z,92414.25
2023-04-17T19:17:57.837Z,92412.34
2023-04-17T19:19:31.995Z,92412.81
2023-04-17T19:21:03.846Z,92417.84
2023-04-17T19:22:39.429Z,92413.94
2023-04-17T19:24:17.939Z,92411.22
2023-04-17T19:25:58.057Z,92422.44
2023-04-17T19:27:37.260Z,92419.97
2023-04-17T19:29:09.321Z,92422.38
2023-04-17T19:30:46.911Z,92417.03
2023-04-17T19:32:23.441Z,92413.75
2023-04-17T19:33:57.544Z,92416.75
2023-04-17T19:35:43.388Z,92417.56
2023-04-17T19:37:15.420Z,92415.31
2023-04-17T19:38:47.361Z,92411.53
2023-04-17T19:40:24.850Z,92409.94
2023-04-17T19:41:57.244Z,92406.97
2023-04-17T19:43:33.591Z,92409.38
2023-04-17T19:45:08.608Z,92415.16
2023-04-17T19:46:42.739Z,92405.88
2023-04-17T19:48:17.146Z,92409.06
2023-04-17T19:49:49.157Z,92404.50
2023-04-17T19:51:28.836Z,92409.63
2023-04-17T19:53:09.535Z,92410.09
2023-04-17T19:54:45.678Z,92411.09
2023-04-17T19:56:22.380Z,92414.09
2023-04-17T19:57:58.980Z,92412.22
2023-04-17T19:59:31.145Z,92408.88
2023-04-17T20:01:04.127Z,92405.84
2023-04-17T20:04:26.612Z,92408.84
2023-04-17T20:06:01.709Z,92404.50
2023-04-17T20:07:36.056Z,92403.22
2023-04-17T20:09:13.911Z,92403.81
2023-04-17T20:10:46.268Z,92405.22
2023-04-17T20:12:20.962Z,92408.03
2023-04-17T20:13:52.690Z,92406.47
2023-04-17T20:15:26.668Z,92409.16
2023-04-17T20:16:58.236Z,92409.16
2023-04-17T20:18:30.349Z,92413.56
2023-04-17T20:20:02.159Z,92410.56
2023-04-17T20:21:33.953Z,92405.66
2023-04-17T20:23:07.869Z,92412.59
2023-04-17T20:24:39.448Z,92406.44
2023-04-17T20:26:11.534Z,92407.97
2023-04-17T20:27:46.125Z,92406.75
2023-04-17T20:29:17.722Z,92402.81
2023-04-17T20:30:49.363Z,92405.66
2023-04-17T20:32:21.006Z,92405.56
2023-04-17T20:33:52.701Z,92412.38
2023-04-17T20:35:24.916Z,92408.28
2023-04-17T20:36:57.083Z,92407.34
2023-04-17T20:38:30.832Z,92404.03
2023-04-17T20:40:02.497Z,92406.16
2023-04-17T20:41:34.210Z,92405.53
2023-04-17T20:43:05.988Z,92402.03
2023-04-17T20:44:37.613Z,92412.00
2023-04-17T20:46:09.221Z,92396.22
2023-04-17T20:47:55.487Z,92404.28
2023-04-17T20:49:28.522Z,92398.25
2023-04-17T20:51:05.569Z,92403.78
2023-04-17T20:52:37.629Z,92403.44
2023-04-17T20:54:09.436Z,92405.50
2023-04-17T20:55:41.134Z,92406.41